createdAt,value
2023-02-12T00:00:58.725Z,27.83
2023-02-12T00:03:26.788Z,26.40
2023-02-12T00:05:56.432Z,26.37
2023-02-12T00:08:24.354Z,30.57
2023-02-12T00:10:52.268Z,27.93
2023-02-12T00:13:20.189Z,27.67
2023-02-12T00:15:48.113Z,28.20
2023-02-12T00:18:16.116Z,30.77
2023-02-12T00:20:44.014Z,31.63
2023-02-12T00:23:13.257Z,34.03
2023-02-12T00:25:43.093Z,33.90
2023-02-12T00:28:11.239Z,32.60
2023-02-12T00:30:39.247Z,35.20
2023-02-12T00:33:07.199Z,27.87
2023-02-12T00:35:35.048Z,36.73
2023-02-12T00:38:02.880Z,28.03
2023-02-12T00:40:32.812Z,28.03
2023-02-12T00:43:00.771Z,30.17
2023-02-12T00:45:28.710Z,30.80
2023-02-12T00:47:56.645Z,28.33
2023-02-12T00:50:24.736Z,31.00
2023-02-12T00:52:52.663Z,29.60
2023-02-12T00:55:20.601Z,31.17
2023-02-12T00:57:49.877Z,27.20
2023-02-12T01:00:18.202Z,27.70
2023-02-12T01:02:46.055Z,26.43
2023-02-12T01:05:14.042Z,26.17
2023-02-12T01:07:41.912Z,25.63
2023-02-12T01:10:11.114Z,27.53
2023-02-12T01:12:38.963Z,20.50
2023-02-12T01:15:10.421Z,23.20
2023-02-12T01:17:38.373Z,26.10
2023-02-12T01:20:08.701Z,26.47
2023-02-12T01:22:37.649Z,27.37
2023-02-12T01:25:06.208Z,26.20
2023-02-12T01:27:34.768Z,25.90
2023-02-12T01:30:02.718Z,23.23
2023-02-12T01:32:32.345Z,28.27
2023-02-12T01:35:00.502Z,27.40
2023-02-12T01:37:28.460Z,24.80
2023-02-12T01:39:57.468Z,21.87
2023-02-12T01:42:25.378Z,24.93
2023-02-12T01:45:44.150Z,21.60
2023-02-12T01:48:14.536Z,22.17
2023-02-12T01:50:45.121Z,22.07
2023-02-12T01:53:20.049Z,22.03
2023-02-12T01:55:54.641Z,22.97
2023-02-12T01:58:25.086Z,20.90
2023-02-12T02:00:53.431Z,19.30
2023-02-12T02:03:22.922Z,19.77
2023-02-12T02:05:56.868Z,19.27
2023-02-12T02:08:24.934Z,21.40
2023-02-12T02:10:52.776Z,22.10
2023-02-12T02:13:39.142Z,19.70
2023-02-12T02:16:15.146Z,20.93
2023-02-12T02:18:54.135Z,22.20
2023-02-12T02:21:51.267Z,22.40
2023-02-12T02:24:48.588Z,22.63
2023-02-12T02:27:21.470Z,21.83
2023-02-12T02:30:34.763Z,22.50
2023-02-12T02:33:23.204Z,20.03
2023-02-12T02:35:59.098Z,20.93
2023-02-12T02:38:35.606Z,20.70
2023-02-12T02:41:07.831Z,20.33
2023-02-12T02:43:39.552Z,23.33
2023-02-12T02:46:14.111Z,21.40
2023-02-12T02:48:47.637Z,21.10
2023-02-12T02:51:20.157Z,22.30
2023-02-12T02:53:52.630Z,21.40
2023-02-12T02:56:24.124Z,20.80
2023-02-12T02:58:57.026Z,22.47
2023-02-12T03:01:32.344Z,20.30
2023-02-12T03:04:04.540Z,20.47
2023-02-12T03:06:40.104Z,19.10
2023-02-12T03:09:16.218Z,19.77
2023-02-12T03:11:44.152Z,19.50
2023-02-12T03:14:17.407Z,19.90
2023-02-12T03:16:55.382Z,18.77
2023-02-12T03:19:26.838Z,17.90
2023-02-12T03:22:01.297Z,17.00
2023-02-12T03:24:36.087Z,16.97
2023-02-12T03:27:08.714Z,16.63
2023-02-12T03:29:36.989Z,15.57
2023-02-12T03:32:20.212Z,14.00
2023-02-12T03:34:52.281Z,18.03
2023-02-12T03:37:27.997Z,15.10
2023-02-12T03:40:05.982Z,17.73
2023-02-12T03:42:37.403Z,15.10
2023-02-12T03:45:11.289Z,14.53
2023-02-12T03:47:49.499Z,15.50
2023-02-12T03:50:21.840Z,14.60
2023-02-12T03:52:51.718Z,14.20
2023-02-12T03:55:19.788Z,14.73
2023-02-12T03:57:52.541Z,14.60
2023-02-12T04:00:23.080Z,14.37
2023-02-12T04:02:54.498Z,15.50
2023-02-12T04:05:24.579Z,14.80
2023-02-12T04:07:54.674Z,15.43
2023-02-12T04:10:25.849Z,15.37
2023-02-12T04:12:58.266Z,16.07
2023-02-12T04:15:44.742Z,15.50
2023-02-12T04:18:20.519Z,15.90
2023-02-12T04:20:56.774Z,15.47
2023-02-12T04:23:42.222Z,15.80
2023-02-12T04:26:17.354Z,15.30
2023-02-12T04:28:58.945Z,15.87
2023-02-12T04:31:34.438Z,15.80
2023-02-12T04:34:11.451Z,15.40
2023-02-12T04:36:46.599Z,15.93
2023-02-12T04:39:21.171Z,15.83
2023-02-12T04:41:49.630Z,15.70
2023-02-12T04:44:20.631Z,14.67
2023-02-12T04:46:48.453Z,15.57
2023-02-12T04:49:20.150Z,14.90
2023-02-12T04:51:49.451Z,15.80
2023-02-12T04:54:19.286Z,15.27
2023-02-12T04:56:47.267Z,15.10
2023-02-12T04:59:15.528Z,13.33
2023-02-12T05:01:44.336Z,14.70
2023-02-12T05:04:13.977Z,13.20
2023-02-12T05:06:44.566Z,13.63
2023-02-12T05:09:15.350Z,12.90
2023-02-12T05:11:43.646Z,12.43
2023-02-12T05:14:11.912Z,11.70
2023-02-12T05:16:39.877Z,11.30
2023-02-12T05:19:09.381Z,11.80
2023-02-12T05:21:38.030Z,11.73
2023-02-12T05:24:07.797Z,10.97
2023-02-12T05:26:35.918Z,12.13
2023-02-12T05:29:04.366Z,12.83
2023-02-12T05:31:32.397Z,11.93
2023-02-12T05:34:00.449Z,11.47
2023-02-12T05:36:28.576Z,12.43
2023-02-12T05:38:59.420Z,11.03
2023-02-12T05:41:29.115Z,13.07
2023-02-12T05:43:56.976Z,11.83
2023-02-12T05:46:24.915Z,13.57
2023-02-12T05:48:52.850Z,11.67
2023-02-12T05:51:23.039Z,11.70
2023-02-12T05:53:52.187Z,11.70
2023-02-12T05:56:22.388Z,11.27
2023-02-12T05:58:54.627Z,11.80
2023-02-12T06:01:24.642Z,12.00
2023-02-12T06:03:52.758Z,11.10
2023-02-12T06:06:20.746Z,11.70
2023-02-12T06:08:49.688Z,11.10
2023-02-12T06:11:19.321Z,11.07
2023-02-12T06:13:47.753Z,11.03
2023-02-12T06:16:22.450Z,10.90
2023-02-12T06:18:50.957Z,10.97
2023-02-12T06:21:20.111Z,11.00
2023-02-12T06:23:48.582Z,11.37
2023-02-12T06:26:17.033Z,10.90
2023-02-12T06:28:45.010Z,10.97
2023-02-12T06:31:22.557Z,11.70
2023-02-12T06:33:51.228Z,13.00
2023-02-12T06:36:19.542Z,14.83
2023-02-12T06:38:47.800Z,18.50
2023-02-12T06:41:16.117Z,17.50
2023-02-12T06:43:44.062Z,16.27
2023-02-12T06:46:12.198Z,17.90
2023-02-12T06:48:41.869Z,16.17
2023-02-12T06:51:12.443Z,13.70
2023-02-12T06:53:40.340Z,13.10
2023-02-12T06:56:11.446Z,12.60
2023-02-12T06:58:40.352Z,11.60
2023-02-12T07:01:13.776Z,10.87
2023-02-12T07:03:44.021Z,11.80
2023-02-12T07:06:11.961Z,11.17
2023-02-12T07:08:40.185Z,10.83
2023-02-12T07:11:08.936Z,9.97
2023-02-12T07:13:36.999Z,9.63
2023-02-12T07:16:06.750Z,9.30
2023-02-12T07:18:35.097Z,11.67
2023-02-12T07:21:05.617Z,10.20
2023-02-12T07:23:33.813Z,11.23
2023-02-12T07:26:03.705Z,10.47
2023-02-12T07:28:33.617Z,14.17
2023-02-12T07:31:02.080Z,12.20
2023-02-12T07:33:30.044Z,12.47
2023-02-12T07:36:01.194Z,13.57
2023-02-12T07:38:31.101Z,12.30
2023-02-12T07:41:10.441Z,11.60
2023-02-12T07:43:38.870Z,11.20
2023-02-12T07:46:08.692Z,11.83
2023-02-12T07:48:36.746Z,11.53
2023-02-12T07:51:06.638Z,10.90
2023-02-12T07:53:36.874Z,11.17
2023-02-12T07:56:10.022Z,11.40
2023-02-12T07:58:38.197Z,11.03
2023-02-12T08:01:18.027Z,11.40
2023-02-12T08:03:46.319Z,10.93
2023-02-12T08:06:15.882Z,11.50
2023-02-12T08:08:45.428Z,11.13
2023-02-12T08:11:14.999Z,8.90
2023-02-12T08:13:43.166Z,9.50
2023-02-12T08:16:13.248Z,10.13
2023-02-12T08:18:41.364Z,8.60
2023-02-12T08:21:11.225Z,8.77
2023-02-12T08:23:39.641Z,11.67
2023-02-12T08:26:14.160Z,8.83
2023-02-12T08:28:44.238Z,9.40
2023-02-12T08:31:14.206Z,10.00
2023-02-12T08:33:42.059Z,7.63
2023-02-12T08:36:12.149Z,7.93
2023-02-12T08:38:41.272Z,8.70
2023-02-12T08:41:12.760Z,7.87
2023-02-12T08:43:43.465Z,8.00
2023-02-12T08:46:15.140Z,7.87
2023-02-12T08:48:44.194Z,8.13
2023-02-12T08:51:14.414Z,7.00
2023-02-12T08:53:43.946Z,7.13
2023-02-12T08:56:15.310Z,8.33
2023-02-12T08:58:43.896Z,6.60
2023-02-12T09:01:14.028Z,5.47
2023-02-12T09:03:41.933Z,6.13
2023-02-12T09:06:10.372Z,5.47
2023-02-12T09:08:39.472Z,5.83
2023-02-12T09:11:08.223Z,5.63
2023-02-12T09:13:37.886Z,4.83
2023-02-12T09:16:06.944Z,5.27
2023-02-12T09:18:36.092Z,4.70
2023-02-12T09:21:06.543Z,4.87
2023-02-12T09:23:34.615Z,8.90
2023-02-12T09:26:06.086Z,5.60
2023-02-12T09:28:34.460Z,4.67
2023-02-12T09:31:07.758Z,4.90
2023-02-12T09:33:36.182Z,5.47
2023-02-12T09:36:04.665Z,4.90
2023-02-12T09:38:33.107Z,4.33
2023-02-12T09:41:48.724Z,4.67
2023-02-12T09:44:23.569Z,4.50
2023-02-12T09:46:57.720Z,4.50
2023-02-12T09:49:51.000Z,4.10
2023-02-12T09:52:21.309Z,4.70
2023-02-12T09:54:50.590Z,4.13
2023-02-12T09:57:22.784Z,4.53
2023-02-12T09:59:55.562Z,5.10
2023-02-12T10:02:25.490Z,7.07
2023-02-12T10:05:01.596Z,4.80
2023-02-12T10:07:41.724Z,5.20
2023-02-12T10:10:24.501Z,5.70
2023-02-12T10:12:57.877Z,5.57
2023-02-12T10:15:36.381Z,6.50
2023-02-12T10:18:21.303Z,5.83
2023-02-12T10:21:12.869Z,5.30
2023-02-12T10:23:59.956Z,5.13
2023-02-12T10:26:31.785Z,5.40
2023-02-12T10:29:10.247Z,5.63
2023-02-12T10:31:41.827Z,4.97
2023-02-12T10:34:18.999Z,4.90
2023-02-12T10:36:49.112Z,4.83
2023-02-12T10:39:22.829Z,5.03
2023-02-12T10:41:57.333Z,4.30
2023-02-12T10:44:25.297Z,5.83
2023-02-12T10:46:53.168Z,4.57
2023-02-12T10:49:22.694Z,5.30
2023-02-12T10:52:03.455Z,5.40
2023-02-12T10:54:36.833Z,5.33
2023-02-12T10:57:16.135Z,5.33
2023-02-12T10:59:45.621Z,4.90
2023-02-12T11:02:22.858Z,5.20
2023-02-12T11:04:52.599Z,6.97
2023-02-12T11:07:21.438Z,6.53
2023-02-12T11:09:51.514Z,6.27
2023-02-12T11:12:24.424Z,5.83
2023-02-12T11:14:55.070Z,5.33
2023-02-12T11:17:27.011Z,5.27
2023-02-12T11:20:20.565Z,5.70
2023-02-12T11:22:53.446Z,5.50
2023-02-12T11:25:22.306Z,7.27
2023-02-12T11:28:06.822Z,4.87
2023-02-12T11:30:35.392Z,5.20
2023-02-12T11:33:24.877Z,5.20
2023-02-12T11:35:57.544Z,4.60
2023-02-12T11:38:31.670Z,4.97
2023-02-12T11:41:08.187Z,4.47
2023-02-12T11:43:39.475Z,5.07
2023-02-12T11:46:09.381Z,5.53
2023-02-12T11:48:40.401Z,6.23
2023-02-12T11:51:19.296Z,6.90
2023-02-12T11:53:52.733Z,8.60
2023-02-12T11:56:21.684Z,5.83
2023-02-12T11:58:51.039Z,6.60
2023-02-12T12:01:23.061Z,6.37
2023-02-12T12:03:59.868Z,5.87
2023-02-12T12:06:35.830Z,6.90
2023-02-12T12:09:08.374Z,5.83
2023-02-12T12:11:42.635Z,5.00
2023-02-12T12:14:18.944Z,4.70
2023-02-12T12:17:13.810Z,4.40
2023-02-12T12:19:54.410Z,4.80
2023-02-12T12:22:37.529Z,4.47
2023-02-12T12:25:17.288Z,5.47
2023-02-12T12:28:05.841Z,4.93
2023-02-12T12:30:48.990Z,4.60
2023-02-12T12:33:21.350Z,5.30
2023-02-12T12:36:01.089Z,4.93
2023-02-12T12:38:42.357Z,6.10
2023-02-12T12:41:22.464Z,5.93
2023-02-12T12:44:02.970Z,6.70
2023-02-12T12:46:37.994Z,6.73
2023-02-12T12:49:20.185Z,7.60
2023-02-12T12:52:10.986Z,6.40
2023-02-12T12:54:58.342Z,7.20
2023-02-12T12:57:38.195Z,7.50
2023-02-12T13:00:47.925Z,7.97
2023-02-12T13:03:52.858Z,7.03
2023-02-12T13:06:33.194Z,5.67
2023-02-12T13:09:15.159Z,7.10
2023-02-12T13:11:55.262Z,6.73
2023-02-12T13:14:37.793Z,6.47
2023-02-12T13:17:12.744Z,6.23
2023-02-12T13:19:53.068Z,7.30
2023-02-12T13:22:26.408Z,6.40
2023-02-12T13:25:01.772Z,6.13
2023-02-12T13:27:34.533Z,7.03
2023-02-12T13:30:07.080Z,6.07
2023-02-12T13:32:43.271Z,6.47
2023-02-12T13:35:17.706Z,6.67
2023-02-12T13:37:49.586Z,7.80
2023-02-12T13:40:19.942Z,6.50
2023-02-12T13:42:56.810Z,6.80
2023-02-12T13:45:42.630Z,6.60
2023-02-12T13:48:25.407Z,7.00
2023-02-12T13:51:02.270Z,7.10
2023-02-12T13:53:47.035Z,7.07
2023-02-12T13:56:32.845Z,6.97
2023-02-12T13:59:02.406Z,6.40
2023-02-12T14:01:41.842Z,10.10
2023-02-12T14:04:28.354Z,9.00
2023-02-12T14:07:01.159Z,7.03
2023-02-12T14:09:40.537Z,7.57
2023-02-12T14:12:12.711Z,7.60
2023-02-12T14:14:45.182Z,7.23
2023-02-12T14:17:42.926Z,7.30
2023-02-12T14:20:28.731Z,6.77
2023-02-12T14:23:21.924Z,7.73
2023-02-12T14:25:58.785Z,6.80
2023-02-12T14:28:35.462Z,6.73
2023-02-12T14:31:33.061Z,6.13
2023-02-12T14:34:39.052Z,5.93
2023-02-12T14:37:33.164Z,6.70
2023-02-12T14:40:40.596Z,7.00
2023-02-12T14:43:34.006Z,6.67
2023-02-12T14:46:35.276Z,7.20
2023-02-12T14:49:06.083Z,7.50
2023-02-12T14:51:37.989Z,7.53
2023-02-12T14:54:14.584Z,7.30
2023-02-12T14:56:47.578Z,7.27
2023-02-12T14:59:19.159Z,7.13
2023-02-12T15:01:48.479Z,8.33
2023-02-12T15:04:25.239Z,7.00
2023-02-12T15:06:58.100Z,7.80
2023-02-12T15:09:32.738Z,6.90
2023-02-12T15:12:06.121Z,7.70
2023-02-12T15:14:37.789Z,7.63
2023-02-12T15:17:11.811Z,7.00
2023-02-12T15:19:45.598Z,7.70
2023-02-12T15:22:21.414Z,8.57
2023-02-12T15:24:49.742Z,7.87
2023-02-12T15:27:19.696Z,7.90
2023-02-12T15:29:50.195Z,8.50
2023-02-12T15:32:22.805Z,7.80
2023-02-12T15:34:53.425Z,8.47
2023-02-12T15:37:25.906Z,7.50
2023-02-12T15:39:57.020Z,7.90
2023-02-12T15:42:30.739Z,8.50
2023-02-12T15:45:22.113Z,8.90
2023-02-12T15:48:00.355Z,8.33
2023-02-12T15:50:31.808Z,8.07
2023-02-12T15:53:00.102Z,7.93
2023-02-12T15:55:34.384Z,8.10
2023-02-12T15:58:03.201Z,8.23
2023-02-12T16:00:37.681Z,7.83
2023-02-12T16:03:05.691Z,7.17
2023-02-12T16:05:35.677Z,7.10
2023-02-12T16:08:04.169Z,7.50
2023-02-12T16:10:32.085Z,7.47
2023-02-12T16:13:00.148Z,7.23
2023-02-12T16:15:31.288Z,7.50
2023-02-12T16:18:04.104Z,7.93
2023-02-12T16:20:32.649Z,7.60
2023-02-12T16:23:07.387Z,8.00
2023-02-12T16:25:35.538Z,7.17
2023-02-12T16:28:06.127Z,7.33
2023-02-12T16:30:38.779Z,7.43
2023-02-12T16:33:33.908Z,7.07
2023-02-12T16:36:02.614Z,6.80
2023-02-12T16:38:56.609Z,8.33
2023-02-12T16:41:27.092Z,7.10
2023-02-12T16:44:24.556Z,7.40
2023-02-12T16:46:55.111Z,6.83
2023-02-12T16:49:24.840Z,7.23
2023-02-12T16:51:53.382Z,6.60
2023-02-12T16:54:37.402Z,6.37
2023-02-12T16:57:05.484Z,7.43
2023-02-12T16:59:34.561Z,7.50
2023-02-12T17:02:04.817Z,6.87
2023-02-12T17:04:32.819Z,7.40
2023-02-12T17:07:00.769Z,7.80
2023-02-12T17:09:30.004Z,7.80
2023-02-12T17:11:59.309Z,7.70
2023-02-12T17:14:27.310Z,10.20
2023-02-12T17:16:55.640Z,9.17
2023-02-12T17:19:23.659Z,8.10
2023-02-12T17:21:51.978Z,9.10
2023-02-12T17:24:22.659Z,8.67
2023-02-12T17:26:51.435Z,8.83
2023-02-12T17:29:22.128Z,8.67
2023-02-12T17:31:51.635Z,7.37
2023-02-12T17:34:19.503Z,8.37
2023-02-12T17:36:47.560Z,9.20
2023-02-12T17:39:16.755Z,8.30
2023-02-12T17:41:45.766Z,7.80
2023-02-12T17:44:15.091Z,8.47
2023-02-12T17:46:45.303Z,8.43
2023-02-12T17:49:13.326Z,9.67
2023-02-12T17:51:42.659Z,9.57
2023-02-12T17:54:10.629Z,9.30
2023-02-12T17:56:38.505Z,7.70
2023-02-12T17:59:06.448Z,9.50
2023-02-12T18:01:36.006Z,8.53
2023-02-12T18:04:05.311Z,9.17
2023-02-12T18:06:33.395Z,10.30
2023-02-12T18:09:02.606Z,10.30
2023-02-12T18:11:32.166Z,11.03
2023-02-12T18:14:01.004Z,10.90
2023-02-12T18:16:31.474Z,11.30
2023-02-12T18:19:01.408Z,12.17
2023-02-12T18:21:30.920Z,10.70
2023-02-12T18:23:58.874Z,13.00
2023-02-12T18:26:29.838Z,12.10
2023-02-12T18:28:59.383Z,10.33
2023-02-12T18:31:28.143Z,9.63
2023-02-12T18:33:56.858Z,10.00
2023-02-12T18:36:25.037Z,9.60
2023-02-12T18:38:54.752Z,9.27
2023-02-12T18:41:25.060Z,9.00
2023-02-12T18:43:54.742Z,10.40
2023-02-12T18:46:24.690Z,10.60
2023-02-12T18:48:53.612Z,10.70
2023-02-12T18:51:23.448Z,9.63
2023-02-12T18:53:56.843Z,9.37
2023-02-12T18:56:24.947Z,10.20
2023-02-12T18:58:56.733Z,9.73
2023-02-12T19:01:25.568Z,13.37
2023-02-12T19:03:55.258Z,10.50
2023-02-12T19:06:23.335Z,12.97
2023-02-12T19:08:57.081Z,14.40
2023-02-12T19:11:25.785Z,13.90
2023-02-12T19:13:53.725Z,10.77
2023-02-12T19:16:23.638Z,21.60
2023-02-12T19:18:54.659Z,16.90
2023-02-12T19:21:26.143Z,17.60
2023-02-12T19:23:56.373Z,16.13
2023-02-12T19:26:24.790Z,14.17
2023-02-12T19:28:53.072Z,13.60
2023-02-12T19:31:23.439Z,14.10
2023-02-12T19:33:55.498Z,14.80
2023-02-12T19:36:23.562Z,14.27
2023-02-12T19:38:51.597Z,14.20
2023-02-12T19:41:23.650Z,14.43
2023-02-12T19:43:54.613Z,15.77
2023-02-12T19:46:22.850Z,14.37
2023-02-12T19:48:50.817Z,14.97
2023-02-12T19:51:20.905Z,14.67
2023-02-12T19:53:49.581Z,15.47
2023-02-12T19:56:17.557Z,15.50
2023-02-12T19:58:46.996Z,15.37
2023-02-12T20:01:17.616Z,14.47
2023-02-12T20:03:46.901Z,18.50
2023-02-12T20:06:17.118Z,16.57
2023-02-12T20:08:45.027Z,16.90
2023-02-12T20:11:14.706Z,15.73
2023-02-12T20:13:42.732Z,15.40
2023-02-12T20:16:15.994Z,15.20
2023-02-12T20:18:44.483Z,14.83
2023-02-12T20:21:14.075Z,13.80
2023-02-12T20:23:42.134Z,14.40
2023-02-12T20:26:14.447Z,15.40
2023-02-12T20:28:42.828Z,15.50
2023-02-12T20:31:14.359Z,14.93
2023-02-12T20:33:43.067Z,14.30
2023-02-12T20:36:12.379Z,14.50
2023-02-12T20:38:40.965Z,14.13
2023-02-12T20:41:10.305Z,13.10
2023-02-12T20:43:39.331Z,14.13
2023-02-12T20:46:09.101Z,14.77
2023-02-12T20:48:39.664Z,14.20
2023-02-12T20:51:09.923Z,12.50
2023-02-12T20:53:38.205Z,14.17
2023-02-12T20:56:08.490Z,14.20
2023-02-12T20:58:38.315Z,12.97
2023-02-12T21:01:07.475Z,14.10
2023-02-12T21:03:36.123Z,24.90
2023-02-12T21:06:06.059Z,31.13
2023-02-12T21:08:36.002Z,18.40
2023-02-12T21:11:09.527Z,17.80
2023-02-12T21:13:39.036Z,19.80
2023-02-12T21:16:09.538Z,18.83
2023-02-12T21:18:38.317Z,15.77
2023-02-12T21:21:09.536Z,15.83
2023-02-12T21:23:38.243Z,16.77
2023-02-12T21:26:08.007Z,16.90
2023-02-12T21:28:36.576Z,18.67
2023-02-12T21:31:09.257Z,16.00
2023-02-12T21:33:37.724Z,16.47
2023-02-12T21:36:10.049Z,16.97
2023-02-12T21:38:40.235Z,17.57
2023-02-12T21:41:10.190Z,17.40
2023-02-12T21:43:38.817Z,18.13
2023-02-12T21:46:07.243Z,18.30
2023-02-12T21:48:35.444Z,18.93
2023-02-12T21:51:04.054Z,18.40
2023-02-12T21:53:33.602Z,18.03
2023-02-12T21:56:03.657Z,21.73
2023-02-12T21:58:31.589Z,19.63
2023-02-12T22:01:07.146Z,19.23
2023-02-12T22:03:35.009Z,17.70
2023-02-12T22:06:03.332Z,19.23
2023-02-12T22:08:31.352Z,17.70
2023-02-12T22:11:02.547Z,18.67
2023-02-12T22:13:30.967Z,17.53
2023-02-12T22:15:59.143Z,17.73
2023-02-12T22:18:27.303Z,16.03
2023-02-12T22:21:01.122Z,14.77
2023-02-12T22:23:29.167Z,17.00
2023-02-12T22:26:04.240Z,15.60
2023-02-12T22:28:33.651Z,19.33
2023-02-12T22:31:06.575Z,21.77
2023-02-12T22:33:34.585Z,22.53
2023-02-12T22:36:05.323Z,21.30
2023-02-12T22:38:34.180Z,21.10
2023-02-12T22:41:02.365Z,21.10
2023-02-12T22:43:30.458Z,21.70
2023-02-12T22:46:00.088Z,20.97
2023-02-12T22:48:29.609Z,23.33
2023-02-12T22:50:59.047Z,20.63
2023-02-12T22:53:27.683Z,20.00
2023-02-12T22:55:55.542Z,18.33
2023-02-12T22:58:23.415Z,16.80
2023-02-12T23:00:51.228Z,17.97
2023-02-12T23:03:20.434Z,18.17
2023-02-12T23:05:48.274Z,17.57
2023-02-12T23:08:16.156Z,18.50
2023-02-12T23:10:44.036Z,16.90
2023-02-12T23:13:21.254Z,18.33
2023-02-12T23:15:56.098Z,17.23
2023-02-12T23:18:25.755Z,18.70
2023-02-12T23:20:54.456Z,19.37
2023-02-12T23:23:23.288Z,17.60
2023-02-12T23:25:53.918Z,18.40
2023-02-12T23:28:22.764Z,19.27
2023-02-12T23:30:51.707Z,19.60
2023-02-12T23:33:20.359Z,18.80
2023-02-12T23:35:50.219Z,20.17
2023-02-12T23:38:18.707Z,19.67
2023-02-12T23:40:48.097Z,19.30
2023-02-12T23:43:16.506Z,20.33
2023-02-12T23:45:45.499Z,20.47
2023-02-12T23:48:13.806Z,20.87
2023-02-12T23:50:42.158Z,20.20
2023-02-12T23:53:11.460Z,22.33
2023-02-12T23:55:40.427Z,23.77
2023-02-12T23:58:08.810Z,21.97
